Time;durP1;ratioP1;P1;durP2;ratioP2;P2;SDS_P1;SDS_P2;PMS_P1;PMS_P2;Temp;Humidity;BMP_temperature;BMP_pressure;BME280_temperature;BME280_humidity;BME280_pressure;Samples;Min_cycle;Max_cycle;Signal;HPM_P1;HPM_P2
2022/10/23 00:01:56;;;;;;;20.85;12.45;;;9.90;99.90;;;;;;5134547;28;20050;-79
2022/10/23 00:04:25;;;;;;;18.60;12.40;;;10.10;99.90;;;;;;5134623;28;20383;-79
2022/10/23 00:06:51;;;;;;;23.35;13.10;;;10.00;99.90;;;;;;5134423;27;20390;-79
2022/10/23 00:09:20;;;;;;;27.45;14.68;;;10.00;99.90;;;;;;5133408;28;20042;-79
2022/10/23 00:11:47;;;;;;;23.58;13.23;;;10.00;99.90;;;;;;5134514;27;20475;-76
2022/10/23 00:14:14;;;;;;;29.83;13.60;;;10.00;99.90;;;;;;5134511;27;20054;-79
2022/10/23 00:16:39;;;;;;;;;;;10.00;99.90;;;;;;5134936;27;20046;-76
2022/10/23 00:19:05;;;;;;;27.15;13.43;;;10.20;99.90;;;;;;5134414;27;19926;-79
2022/10/23 00:21:31;;;;;;;25.48;14.20;;;10.10;99.90;;;;;;5134435;28;20502;-79
2022/10/23 00:23:57;;;;;;;25.73;13.18;;;10.10;99.90;;;;;;5134306;28;20050;-79
2022/10/23 00:26:22;;;;;;;23.92;13.30;;;10.10;99.90;;;;;;5134366;27;20135;-79
2022/10/23 00:28:51;;;;;;;21.58;13.70;;;10.40;99.90;;;;;;5134394;28;20126;-79
2022/10/23 00:31:18;;;;;;;22.85;14.82;;;10.10;99.90;;;;;;5134276;27;20075;-79
2022/10/23 00:33:44;;;;;;;27.05;14.88;;;10.10;99.90;;;;;;5134318;27;20043;-78
2022/10/23 00:36:13;;;;;;;25.83;14.55;;;10.10;99.90;;;;;;5134226;27;20527;-79
2022/10/23 00:38:39;;;;;;;26.50;12.95;;;10.10;99.90;;;;;;5134232;27;20039;-79
2022/10/23 00:41:06;;;;;;;19.70;13.88;;;10.10;99.90;;;;;;5134500;28;20079;-79
2022/10/23 00:43:33;;;;;;;25.38;14.07;;;10.20;99.90;;;;;;5134142;27;20475;-79
2022/10/23 00:45:59;;;;;;;20.52;13.45;;;10.20;99.90;;;;;;5134026;27;20043;-79
2022/10/23 00:48:26;;;;;;;21.05;13.27;;;10.20;99.90;;;;;;5134206;27;20099;-79
2022/10/23 00:50:53;;;;;;;26.63;15.05;;;10.20;99.90;;;;;;5134206;27;20039;-76
2022/10/23 00:53:19;;;;;;;22.40;13.55;;;10.20;99.90;;;;;;5134120;27;20126;-79
2022/10/23 00:55:48;;;;;;;24.45;13.43;;;10.20;99.90;;;;;;5134130;27;20043;-79
2022/10/23 00:58:15;;;;;;;25.92;14.52;;;10.20;99.90;;;;;;5134079;27;20039;-79
2022/10/23 01:00:53;;;;;;;30.17;14.23;;;10.40;99.90;;;;;;5134578;27;20043;-79
2022/10/23 01:03:20;;;;;;;;;;;10.20;99.90;;;;;;5138177;27;20051;-76
2022/10/23 01:05:51;;;;;;;24.95;13.35;;;10.10;99.90;;;;;;5137674;27;20017;-79
2022/10/23 01:08:28;;;;;;;27.08;13.38;;;10.10;99.90;;;;;;5137720;27;20039;-76
2022/10/23 01:11:02;;;;;;;52.25;14.57;;;10.10;99.90;;;;;;5137572;27;20123;-79
2022/10/23 01:13:34;;;;;;;21.73;13.07;;;10.10;99.90;;;;;;5136312;27;20047;-79
2022/10/23 01:16:07;;;;;;;23.55;13.27;;;10.10;99.90;;;;;;5137856;27;20054;-79
2022/10/23 01:18:44;;;;;;;29.85;12.90;;;10.00;99.90;;;;;;5137362;27;20490;-79
2022/10/23 01:21:25;;;;;;;21.27;13.43;;;10.00;99.90;;;;;;5137513;27;20096;-76
2022/10/23 01:24:07;;;;;;;28.65;13.38;;;9.90;99.90;;;;;;5137232;27;20051;-76
2022/10/23 01:26:48;;;;;;;20.52;13.13;;;10.00;99.90;;;;;;5137313;27;20176;-79
2022/10/23 01:29:32;;;;;;;34.72;13.40;;;10.00;99.90;;;;;;5137247;27;20135;-79
2022/10/23 01:32:08;;;;;;;22.40;12.98;;;9.90;99.90;;;;;;5137219;27;20079;-79
2022/10/23 01:34:50;;;;;;;19.15;12.13;;;9.90;99.90;;;;;;5137234;27;20062;-79
2022/10/23 01:37:24;;;;;;;22.35;12.82;;;9.90;99.90;;;;;;5137014;27;20474;-79
2022/10/23 01:39:54;;;;;;;17.98;12.88;;;9.80;99.90;;;;;;5137068;27;20047;-79
2022/10/23 01:42:24;;;;;;;21.73;11.90;;;10.00;99.90;;;;;;5136979;27;20047;-79
2022/10/23 01:45:01;;;;;;;27.75;12.73;;;10.10;99.90;;;;;;5137400;27;20058;-79
2022/10/23 01:47:29;;;;;;;29.80;12.60;;;9.80;99.90;;;;;;5136412;27;20391;-78
2022/10/23 01:49:56;;;;;;;19.63;13.18;;;9.80;99.90;;;;;;5136875;27;20035;-76
2022/10/23 01:52:22;;;;;;;23.45;12.18;;;9.80;99.90;;;;;;5136792;27;20039;-79
2022/10/23 01:54:50;;;;;;;29.92;11.90;;;9.70;99.90;;;;;;5136727;27;20471;-79
2022/10/23 01:57:19;;;;;;;18.75;12.82;;;9.70;99.90;;;;;;5136712;27;20039;-79
2022/10/23 01:59:57;;;;;;;24.63;12.90;;;9.70;99.90;;;;;;5137025;27;20205;-79
2022/10/23 02:02:25;;;;;;;25.23;12.65;;;9.70;99.90;;;;;;5136649;27;20039;-76
2022/10/23 02:05:15;;;;;;;22.65;11.57;;;9.70;99.90;;;;;;5135899;27;20042;-76
2022/10/23 02:07:42;;;;;;;21.55;12.48;;;9.70;99.90;;;;;;5136249;27;20045;-77
2022/10/23 02:10:09;;;;;;;23.73;12.13;;;9.70;99.90;;;;;;5136503;27;20043;-77
2022/10/23 02:12:59;;;;;;;18.20;12.00;;;9.70;99.90;;;;;;5135941;27;20047;-77
2022/10/23 02:15:27;;;;;;;23.80;12.68;;;9.70;99.90;;;;;;5136440;27;20035;-77
2022/10/23 02:18:02;;;;;;;23.13;12.95;;;9.70;99.90;;;;;;5136144;27;20058;-77
2022/10/23 02:20:35;;;;;;;30.35;12.27;;;9.70;99.90;;;;;;5136189;27;20046;-77
2022/10/23 02:23:10;;;;;;;24.38;12.63;;;9.70;99.90;;;;;;5136062;27;20035;-78
2022/10/23 02:25:46;;;;;;;56.08;14.02;;;9.60;99.90;;;;;;5135998;27;20047;-77
2022/10/23 02:28:18;;;;;;;28.67;11.32;;;9.60;99.90;;;;;;5134922;27;20047;-77
2022/10/23 02:30:47;;;;;;;21.70;12.27;;;9.60;99.90;;;;;;5136085;27;20078;-77
2022/10/23 02:33:13;;;;;;;24.23;12.77;;;9.60;99.90;;;;;;5135542;27;20424;-77
2022/10/23 02:35:39;;;;;;;24.40;11.88;;;9.50;99.90;;;;;;5135887;27;20054;-77
2022/10/23 02:38:30;;;;;;;16.98;11.15;;;9.50;99.90;;;;;;5135918;27;20048;-77
2022/10/23 02:41:07;;;;;;;28.50;12.38;;;9.40;99.90;;;;;;5135758;27;20039;-77
2022/10/23 02:43:40;;;;;;;20.55;11.85;;;9.40;99.90;;;;;;5135807;27;20049;-77
2022/10/23 02:46:15;;;;;;;27.27;12.60;;;9.40;99.90;;;;;;5135595;27;20039;-77
2022/10/23 02:48:51;;;;;;;83.22;17.08;;;9.40;99.90;;;;;;5135694;27;20100;-77
2022/10/23 02:51:50;;;;;;;21.30;12.60;;;9.40;99.90;;;;;;5135736;27;20434;-77
2022/10/23 02:54:24;;;;;;;69.18;15.60;;;9.40;99.90;;;;;;5108087;27;20062;-77
2022/10/23 02:57:04;;;;;;;33.42;13.90;;;9.40;99.90;;;;;;5135534;27;20040;-77
2022/10/23 02:59:45;;;;;;;51.35;14.02;;;9.40;99.90;;;;;;5134572;27;20054;-77
2022/10/23 03:02:18;;;;;;;17.88;13.23;;;9.40;99.90;;;;;;5135494;27;20050;-77
2022/10/23 03:04:45;;;;;;;20.00;13.18;;;9.40;99.90;;;;;;5134643;27;20043;-77
2022/10/23 03:07:13;;;;;;;44.15;13.70;;;9.60;99.90;;;;;;5135328;27;20092;-77
2022/10/23 03:09:38;;;;;;;27.67;13.65;;;9.40;99.90;;;;;;5135325;27;20082;-77
2022/10/23 03:12:04;;;;;;;20.85;12.85;;;9.70;99.90;;;;;;5134950;27;20085;-78
2022/10/23 03:14:30;;;;;;;22.42;12.27;;;9.50;99.90;;;;;;5135238;27;20043;-77
2022/10/23 03:16:55;;;;;;;46.85;13.50;;;9.50;99.90;;;;;;5135159;27;20078;-78
2022/10/23 03:19:21;;;;;;;39.03;14.10;;;9.50;99.90;;;;;;5135064;27;20131;-77
2022/10/23 03:21:46;;;;;;;24.08;12.20;;;9.50;99.90;;;;;;5135120;27;20054;-77
2022/10/23 03:24:12;;;;;;;21.27;12.65;;;9.40;99.90;;;;;;5134412;27;20161;-77
2022/10/23 03:26:38;;;;;;;21.52;13.00;;;9.50;99.90;;;;;;5134977;27;20069;-77
2022/10/23 03:29:03;;;;;;;40.30;13.15;;;9.50;99.90;;;;;;5134710;27;20131;-77
2022/10/23 03:31:29;;;;;;;21.08;13.43;;;9.50;99.90;;;;;;5134980;27;20176;-77
2022/10/23 03:33:54;;;;;;;40.20;13.15;;;9.50;99.90;;;;;;5134968;27;20057;-77
2022/10/23 03:36:20;;;;;;;21.58;12.80;;;9.50;99.90;;;;;;5135176;27;20046;-77
2022/10/23 03:38:46;;;;;;;19.45;11.75;;;9.50;99.90;;;;;;5134633;27;20039;-77
2022/10/23 03:41:11;;;;;;;21.58;13.20;;;9.50;99.90;;;;;;5134844;27;20095;-77
2022/10/23 03:43:37;;;;;;;29.63;13.43;;;9.50;99.90;;;;;;5134444;27;20482;-77
2022/10/23 03:46:07;;;;;;;22.00;13.80;;;9.70;99.90;;;;;;5134649;27;20039;-77
2022/10/23 03:48:36;;;;;;;26.13;14.10;;;9.50;99.90;;;;;;5135097;27;20039;-77
2022/10/23 03:51:05;;;;;;;21.23;13.00;;;9.60;99.90;;;;;;5134997;27;20051;-77
2022/10/23 03:53:31;;;;;;;21.30;13.70;;;9.50;99.90;;;;;;5134805;27;20031;-77
2022/10/23 03:55:56;;;;;;;26.10;15.25;;;9.50;99.90;;;;;;5134709;28;20125;-77
2022/10/23 03:58:22;;;;;;;19.73;13.30;;;9.90;99.90;;;;;;5134584;28;20043;-77
2022/10/23 04:00:47;;;;;;;21.42;12.93;;;9.50;99.90;;;;;;5134595;28;20546;-77
2022/10/23 04:03:13;;;;;;;24.67;13.15;;;9.40;99.90;;;;;;5134641;28;20062;-77
2022/10/23 04:05:40;;;;;;;23.90;12.80;;;9.40;99.90;;;;;;5134779;28;20128;-77
2022/10/23 04:08:06;;;;;;;31.83;13.50;;;9.40;99.90;;;;;;5134554;27;20053;-77
2022/10/23 04:10:32;;;;;;;21.08;12.65;;;9.40;99.90;;;;;;5134544;28;20047;-77
2022/10/23 04:12:57;;;;;;;22.77;12.55;;;9.90;99.90;;;;;;5134420;28;20043;-77
2022/10/23 04:15:23;;;;;;;19.05;12.98;;;9.40;99.90;;;;;;5134547;28;20141;-77
2022/10/23 04:17:48;;;;;;;25.25;13.50;;;9.40;99.90;;;;;;5134262;28;20095;-77
2022/10/23 04:20:14;;;;;;;17.65;12.70;;;9.40;99.90;;;;;;5134674;28;20049;-79
2022/10/23 04:22:39;;;;;;;23.55;14.10;;;9.40;99.90;;;;;;5134243;28;20049;-77
2022/10/23 04:25:05;;;;;;;19.40;12.35;;;9.40;99.90;;;;;;5133781;28;20507;-77
2022/10/23 04:27:33;;;;;;;18.20;12.63;;;9.40;99.90;;;;;;5134247;27;20431;-77
2022/10/23 04:29:59;;;;;;;22.42;13.20;;;9.40;99.90;;;;;;5134432;27;20043;-77
2022/10/23 04:32:24;;;;;;;21.67;12.75;;;9.40;99.90;;;;;;5134141;27;20524;-77
2022/10/23 04:34:50;;;;;;;19.45;12.77;;;9.40;99.90;;;;;;5134996;27;20041;-77
2022/10/23 04:37:15;;;;;;;23.45;13.35;;;9.40;99.90;;;;;;5136999;27;20047;-77
2022/10/23 04:39:41;;;;;;;23.40;13.63;;;9.70;99.90;;;;;;5138249;27;20043;-77
2022/10/23 04:42:06;;;;;;;22.70;13.02;;;9.40;99.90;;;;;;5137824;27;20082;-77
2022/10/23 04:44:32;;;;;;;25.05;13.45;;;9.50;99.90;;;;;;5138336;27;20047;-77
2022/10/23 04:46:58;;;;;;;24.70;13.68;;;9.40;99.90;;;;;;5138400;27;20103;-77
2022/10/23 04:49:23;;;;;;;27.05;13.70;;;9.70;99.90;;;;;;5137685;27;20404;-77
2022/10/23 04:51:49;;;;;;;28.98;13.43;;;9.50;99.90;;;;;;5138036;27;20122;-77
2022/10/23 04:54:14;;;;;;;21.90;13.60;;;9.50;99.90;;;;;;5138022;27;20389;-77
2022/10/23 04:56:40;;;;;;;26.50;12.57;;;9.50;99.90;;;;;;5137926;27;20046;-77
2022/10/23 04:59:05;;;;;;;22.77;12.68;;;9.60;99.90;;;;;;5137844;27;20455;-77
2022/10/23 05:01:31;;;;;;;25.23;13.73;;;9.70;99.90;;;;;;5137626;27;20051;-77
2022/10/23 05:03:57;;;;;;;20.80;12.27;;;9.70;99.90;;;;;;5137785;27;20047;-77
2022/10/23 05:06:22;;;;;;;22.17;12.45;;;9.70;99.90;;;;;;5137667;27;20372;-77
2022/10/23 05:08:48;;;;;;;28.45;13.70;;;9.70;99.90;;;;;;5137692;27;20069;-77
2022/10/23 05:11:13;;;;;;;27.75;13.55;;;9.70;99.90;;;;;;5137675;27;20086;-77
2022/10/23 05:13:39;;;;;;;21.60;12.75;;;9.70;99.90;;;;;;5137556;27;20054;-77
2022/10/23 05:16:05;;;;;;;25.30;13.48;;;9.70;99.90;;;;;;5137169;27;20082;-77
2022/10/23 05:18:36;;;;;;;23.05;12.65;;;9.70;99.90;;;;;;5137819;27;20043;-77
2022/10/23 05:21:12;;;;;;;20.75;12.27;;;10.20;99.90;;;;;;5137726;27;20121;-77
2022/10/23 05:23:41;;;;;;;29.85;13.80;;;9.70;99.90;;;;;;5137527;27;20117;-77
2022/10/23 05:26:07;;;;;;;21.98;13.25;;;9.80;99.90;;;;;;5137195;27;20092;-77
2022/10/23 05:28:32;;;;;;;26.90;13.90;;;9.80;99.90;;;;;;5137209;27;20043;-77
2022/10/23 05:30:59;;;;;;;22.88;13.05;;;9.80;99.90;;;;;;5137282;27;20066;-77
2022/10/23 05:33:25;;;;;;;;;;;9.80;99.90;;;;;;5137898;27;20051;-77
2022/10/23 05:35:51;;;;;;;24.05;11.95;;;9.80;99.90;;;;;;5137157;27;19927;-77
2022/10/23 05:38:17;;;;;;;21.63;12.40;;;9.80;99.90;;;;;;5137084;27;20035;-77
2022/10/23 05:40:42;;;;;;;26.80;12.95;;;9.80;99.90;;;;;;5136979;27;20043;-77
2022/10/23 05:43:08;;;;;;;22.13;11.85;;;9.80;99.90;;;;;;5137094;27;20039;-76
2022/10/23 05:45:33;;;;;;;25.20;12.10;;;9.70;99.90;;;;;;5136772;27;20371;-75
2022/10/23 05:47:59;;;;;;;22.13;12.18;;;9.70;99.90;;;;;;5136060;27;20107;-77
2022/10/23 05:50:25;;;;;;;20.48;12.30;;;9.70;99.90;;;;;;5136972;27;20098;-76
2022/10/23 05:52:51;;;;;;;20.55;12.82;;;10.20;99.90;;;;;;5136743;27;20043;-74
2022/10/23 05:55:16;;;;;;;25.80;12.02;;;9.70;99.90;;;;;;5136742;27;20032;-76
2022/10/23 05:57:42;;;;;;;28.35;12.30;;;9.70;99.90;;;;;;5137423;27;20047;-73
2022/10/23 06:00:08;;;;;;;19.30;11.82;;;9.70;99.90;;;;;;5136921;27;20467;-74
2022/10/23 06:02:34;;;;;;;18.02;11.85;;;9.80;99.90;;;;;;5136569;27;20371;-73
2022/10/23 06:04:59;;;;;;;23.08;12.48;;;10.00;99.90;;;;;;5136637;27;20051;-74
2022/10/23 06:07:26;;;;;;;23.70;12.43;;;9.80;99.90;;;;;;5136453;27;20436;-74
2022/10/23 06:09:53;;;;;;;;;;;9.80;99.90;;;;;;5136858;27;20039;-72
2022/10/23 06:12:20;;;;;;;20.15;11.27;;;9.80;99.90;;;;;;5136888;27;19970;-73
2022/10/23 06:14:45;;;;;;;;;;;9.80;99.90;;;;;;5136788;27;20039;-73
2022/10/23 06:17:11;;;;;;;22.40;11.35;;;9.90;99.90;;;;;;5136239;27;20286;-73
2022/10/23 06:19:36;;;;;;;20.20;10.50;;;9.90;99.90;;;;;;5136310;27;20035;-73
2022/10/23 06:22:03;;;;;;;27.25;11.40;;;9.90;99.90;;;;;;5136223;27;20107;-73
2022/10/23 06:24:29;;;;;;;24.30;12.30;;;9.90;99.90;;;;;;5135872;27;20146;-72
2022/10/23 06:26:54;;;;;;;22.95;11.77;;;10.00;99.90;;;;;;5136008;27;20130;-74
2022/10/23 06:29:20;;;;;;;26.13;12.20;;;10.00;99.90;;;;;;5136014;27;20092;-73
2022/10/23 06:31:46;;;;;;;23.05;11.27;;;10.00;99.90;;;;;;5136087;27;20031;-75
2022/10/23 06:34:12;;;;;;;19.85;11.65;;;10.10;99.90;;;;;;5136557;27;20035;-73
2022/10/23 06:36:37;;;;;;;26.63;12.00;;;10.10;99.90;;;;;;5135877;27;20437;-74
2022/10/23 06:39:04;;;;;;;20.15;11.93;;;10.10;99.90;;;;;;5135910;27;20035;-74
2022/10/23 06:41:29;;;;;;;27.35;12.25;;;10.20;99.90;;;;;;5138706;27;20421;-73
2022/10/23 06:43:55;;;;;;;29.65;12.90;;;10.10;99.90;;;;;;5157305;27;20049;-73
2022/10/23 06:46:21;;;;;;;26.30;12.15;;;10.20;99.90;;;;;;5156459;27;20466;-73
2022/10/23 06:48:46;;;;;;;21.98;11.77;;;10.30;99.90;;;;;;5156657;27;20043;-74
2022/10/23 06:51:15;;;;;;;21.23;12.07;;;10.20;99.90;;;;;;5156439;27;20505;-73
2022/10/23 06:53:42;;;;;;;23.13;12.63;;;10.20;99.90;;;;;;5156281;27;20482;-73
2022/10/23 06:56:09;;;;;;;19.30;11.35;;;10.20;99.90;;;;;;5156315;27;20038;-73
2022/10/23 06:58:37;;;;;;;24.48;12.43;;;10.30;99.90;;;;;;5156633;27;20061;-73
2022/10/23 07:01:04;;;;;;;22.00;12.02;;;10.20;99.90;;;;;;5156137;27;20038;-73
2022/10/23 07:03:30;;;;;;;27.42;11.93;;;10.30;99.90;;;;;;5156370;27;20043;-72
2022/10/23 07:06:00;;;;;;;22.25;12.82;;;10.30;99.90;;;;;;5155901;27;20035;-73
2022/10/23 07:08:25;;;;;;;17.63;11.15;;;10.40;99.90;;;;;;5155742;27;20516;-75
2022/10/23 07:10:51;;;;;;;20.67;11.68;;;10.50;99.90;;;;;;5156512;27;20078;-76
2022/10/23 07:13:17;;;;;;;21.27;11.45;;;10.50;99.90;;;;;;5155960;27;20129;-74
2022/10/23 07:15:43;;;;;;;20.50;11.48;;;10.50;99.90;;;;;;5155991;27;20083;-74
2022/10/23 07:18:13;;;;;;;20.60;11.45;;;10.50;99.90;;;;;;5155941;27;20125;-76
2022/10/23 07:20:39;;;;;;;18.80;11.65;;;10.70;99.90;;;;;;5155647;27;20050;-75
2022/10/23 07:23:06;;;;;;;19.17;10.93;;;10.50;99.90;;;;;;5155538;27;20539;-76
2022/10/23 07:25:32;;;;;;;20.45;11.43;;;10.60;99.90;;;;;;5155997;27;20054;-74
2022/10/23 07:27:58;;;;;;;23.20;11.70;;;10.60;99.90;;;;;;5154586;27;20047;-77
2022/10/23 07:30:23;;;;;;;22.25;11.93;;;10.60;99.90;;;;;;5155760;27;20291;-75
2022/10/23 07:32:49;;;;;;;22.17;11.13;;;10.80;99.90;;;;;;5155684;27;20046;-79
2022/10/23 07:35:15;;;;;;;21.58;11.23;;;10.70;99.90;;;;;;5154499;27;20038;-75
2022/10/23 07:37:41;;;;;;;20.13;11.47;;;10.70;99.90;;;;;;5154422;27;20047;-77
2022/10/23 07:40:07;;;;;;;17.58;11.50;;;10.80;99.90;;;;;;5155581;27;20462;-77
2022/10/23 07:42:33;;;;;;;26.17;11.82;;;10.80;99.90;;;;;;5155492;27;20043;-78
2022/10/23 07:44:58;;;;;;;22.25;11.00;;;11.00;99.90;;;;;;5155926;27;20493;-76
2022/10/23 07:47:24;;;;;;;21.65;10.98;;;10.80;99.90;;;;;;5155411;27;20088;-75
2022/10/23 07:49:50;;;;;;;21.55;10.65;;;10.90;99.90;;;;;;5155517;27;20035;-78
2022/10/23 07:52:16;;;;;;;19.27;11.27;;;10.90;99.90;;;;;;5155445;27;20043;-78
2022/10/23 07:54:42;;;;;;;21.60;10.93;;;11.00;99.90;;;;;;5152716;27;20042;-73
2022/10/23 07:57:10;;;;;;;17.10;10.13;;;11.10;99.90;;;;;;5140211;27;20061;-73
2022/10/23 07:59:37;;;;;;;22.17;10.38;;;11.10;99.90;;;;;;5154577;27;20546;-75
2022/10/23 08:02:03;;;;;;;19.30;10.27;;;11.10;99.90;;;;;;5153979;27;20039;-78
2022/10/23 08:04:28;;;;;;;14.23;9.60;;;11.20;99.90;;;;;;5150757;27;20035;-76
2022/10/23 08:06:55;;;;;;;18.55;10.20;;;11.20;99.90;;;;;;5133988;27;20439;-76
2022/10/23 08:09:21;;;;;;;20.02;10.38;;;11.30;99.90;;;;;;5133215;27;20055;-77
2022/10/23 08:11:47;;;;;;;14.57;9.50;;;11.30;99.90;;;;;;5120312;27;20175;-77
2022/10/23 08:14:13;;;;;;;20.33;10.27;;;11.40;99.90;;;;;;5138474;27;20126;-78
2022/10/23 08:16:38;;;;;;;18.02;8.88;;;11.50;99.90;;;;;;5137542;27;20162;-78
2022/10/23 08:19:06;;;;;;;23.60;10.55;;;11.50;99.90;;;;;;5138498;27;20035;-77
2022/10/23 08:21:32;;;;;;;23.42;9.43;;;11.60;99.90;;;;;;5137853;27;20074;-77
2022/10/23 08:23:59;;;;;;;16.63;7.80;;;11.60;99.90;;;;;;5137088;27;20506;-78
2022/10/23 08:26:28;;;;;;;19.58;9.32;;;11.70;99.90;;;;;;5119683;27;20138;-78
2022/10/23 08:28:54;;;;;;;13.90;8.68;;;11.70;99.90;;;;;;5137176;27;20506;-79
2022/10/23 08:31:21;;;;;;;17.73;8.57;;;11.80;99.90;;;;;;5137702;27;20043;-77
2022/10/23 08:33:47;;;;;;;15.93;9.10;;;11.90;99.90;;;;;;5137212;27;20035;-77
2022/10/23 08:36:25;;;;;;;14.40;8.32;;;12.00;99.90;;;;;;5137976;27;20035;-77
2022/10/23 08:38:54;;;;;;;15.07;8.45;;;12.00;99.90;;;;;;5137772;27;20043;-77
2022/10/23 08:41:27;;;;;;;13.30;8.20;;;12.10;99.90;;;;;;5136577;27;20039;-76
2022/10/23 08:44:22;;;;;;;15.63;8.55;;;12.20;99.90;;;;;;5137988;27;20435;-76
2022/10/23 08:47:17;;;;;;;21.60;9.07;;;12.30;99.90;;;;;;5128992;27;20047;-80
2022/10/23 08:49:50;;;;;;;15.60;7.93;;;12.30;99.90;;;;;;5126967;27;20498;-76
2022/10/23 08:52:43;;;;;;;12.15;7.72;;;12.40;99.90;;;;;;5137279;27;20376;-78
2022/10/23 08:55:22;;;;;;;14.55;7.82;;;12.50;99.90;;;;;;5136466;27;20169;-78
2022/10/23 08:57:54;;;;;;;13.43;7.50;;;12.60;99.90;;;;;;5137016;27;20390;-78
2022/10/23 09:00:20;;;;;;;11.55;7.28;;;12.70;99.90;;;;;;5136995;27;20624;-77
2022/10/23 09:02:51;;;;;;;13.20;7.55;;;12.70;99.90;;;;;;5137205;27;20121;-77
2022/10/23 09:05:35;;;;;;;17.98;7.35;;;13.30;99.90;;;;;;5119150;27;20047;-78
2022/10/23 09:08:36;;;;;;;9.90;7.20;;;12.90;99.90;;;;;;5137075;27;20047;-75
2022/10/23 09:11:23;;;;;;;13.23;7.18;;;13.00;99.90;;;;;;5135479;27;20090;-76
2022/10/23 09:14:20;;;;;;;14.15;7.45;;;13.10;99.90;;;;;;5137724;27;20050;-75
2022/10/23 09:17:20;;;;;;;12.18;7.65;;;13.20;99.90;;;;;;5137638;27;20043;-77
2022/10/23 09:19:45;;;;;;;14.77;6.80;;;13.30;99.90;;;;;;5133757;27;20052;-79
2022/10/23 09:22:12;;;;;;;10.43;6.38;;;13.20;99.90;;;;;;5156249;27;20045;-79
2022/10/23 09:24:42;;;;;;;10.90;5.90;;;13.40;99.90;;;;;;5158071;27;20055;-78
2022/10/23 09:27:14;;;;;;;17.58;6.90;;;13.40;99.90;;;;;;5158043;27;20078;-76
2022/10/23 09:29:48;;;;;;;11.43;6.50;;;13.50;99.90;;;;;;5157181;27;20085;-77
2022/10/23 09:32:13;;;;;;;12.13;5.82;;;13.50;99.90;;;;;;5157711;27;20034;-79
2022/10/23 09:34:53;;;;;;;12.90;6.63;;;13.50;99.90;;;;;;5157862;27;20050;-78
2022/10/23 09:37:31;;;;;;;11.10;6.15;;;13.50;99.90;;;;;;5158066;27;20043;-79
2022/10/23 09:40:20;;;;;;;13.20;6.38;;;13.50;99.90;;;;;;5158170;27;20129;-78
2022/10/23 09:42:51;;;;;;;10.60;6.30;;;13.50;99.90;;;;;;5157839;27;20091;-77
2022/10/23 09:45:34;;;;;;;12.25;6.97;;;13.60;99.90;;;;;;5157672;27;20432;-78
2022/10/23 09:48:26;;;;;;;17.15;6.35;;;13.60;99.90;;;;;;5157770;27;20093;-78
2022/10/23 09:50:58;;;;;;;15.10;5.82;;;13.70;99.90;;;;;;5153869;27;20054;-77
2022/10/23 09:53:37;;;;;;;11.93;5.80;;;13.80;99.90;;;;;;5157622;27;20089;-77
2022/10/23 09:56:29;;;;;;;13.50;6.13;;;13.80;99.90;;;;;;5157548;27;20035;-78
2022/10/23 09:58:59;;;;;;;11.45;6.20;;;13.90;99.90;;;;;;5157466;27;20043;-77
2022/10/23 10:01:31;;;;;;;15.00;6.07;;;14.00;99.90;;;;;;5157411;27;20137;-77
2022/10/23 10:03:57;;;;;;;10.38;6.22;;;14.10;99.90;;;;;;5157545;27;20039;-77
2022/10/23 10:06:29;;;;;;;11.02;6.15;;;14.10;99.90;;;;;;5157280;27;20043;-77
2022/10/23 10:08:57;;;;;;;7.65;5.40;;;14.20;99.90;;;;;;5157264;27;20035;-77
2022/10/23 10:11:30;;;;;;;12.27;6.07;;;14.60;99.90;;;;;;5157098;27;20039;-78
2022/10/23 10:14:02;;;;;;;13.60;5.93;;;14.40;99.90;;;;;;5157242;27;20045;-80
2022/10/23 10:16:50;;;;;;;13.27;5.90;;;14.50;99.90;;;;;;5155917;27;20125;-76
2022/10/23 10:19:33;;;;;;;11.52;5.18;;;14.60;99.90;;;;;;5156846;27;20038;-76
2022/10/23 10:22:22;;;;;;;9.75;5.78;;;14.60;99.90;;;;;;5156823;27;20129;-78
2022/10/23 10:25:09;;;;;;;9.07;5.50;;;14.70;99.90;;;;;;5157008;27;20046;-77
2022/10/23 10:27:50;;;;;;;19.42;8.95;;;14.70;99.90;;;;;;5156942;27;20046;-77
2022/10/23 10:30:20;;;;;;;12.20;6.50;;;14.80;99.90;;;;;;5156536;27;20053;-76
2022/10/23 10:33:24;;;;;;;18.55;6.43;;;14.80;99.90;;;;;;5156361;27;20045;-76
2022/10/23 10:36:01;;;;;;;20.25;9.15;;;14.90;99.90;;;;;;5072595;28;20097;-75
2022/10/23 10:38:50;;;;;;;23.98;14.02;;;15.00;99.90;;;;;;5145948;27;20051;-76
2022/10/23 10:41:48;;;;;;;13.23;7.53;;;15.00;99.90;;;;;;5156750;27;20444;-77
2022/10/23 10:44:28;;;;;;;10.68;5.30;;;15.00;99.90;;;;;;5162616;27;20467;-75
2022/10/23 10:46:58;;;;;;;9.60;4.65;;;15.10;99.90;;;;;;5156336;27;20042;-75
2022/10/23 10:49:30;;;;;;;13.35;5.45;;;15.10;99.90;;;;;;5156527;27;20071;-75
2022/10/23 10:52:01;;;;;;;12.27;5.38;;;15.20;99.90;;;;;;5156376;27;20419;-74
2022/10/23 10:54:53;;;;;;;12.82;5.43;;;15.20;99.90;;;;;;5156015;27;20043;-75
2022/10/23 10:57:44;;;;;;;11.02;4.93;;;15.30;99.90;;;;;;5156606;27;20057;-75
2022/10/23 11:00:18;;;;;;;8.55;4.45;;;15.30;99.90;;;;;;5156013;27;20086;-76
2022/10/23 11:03:24;;;;;;;8.07;4.45;;;15.30;99.90;;;;;;5155188;27;20093;-83
2022/10/23 11:05:52;;;;;;;11.60;4.60;;;15.30;99.90;;;;;;5074448;28;20037;-76
2022/10/23 11:08:36;;;;;;;8.85;4.47;;;15.40;99.90;;;;;;5144768;27;20059;-76
2022/10/23 11:11:22;;;;;;;9.23;4.28;;;15.40;99.90;;;;;;5158874;27;20432;-77
2022/10/23 11:13:52;;;;;;;8.50;4.07;;;15.40;99.90;;;;;;5156101;27;20047;-82
2022/10/23 11:16:26;;;;;;;9.15;4.53;;;15.40;99.90;;;;;;5156180;27;20030;-79
2022/10/23 11:19:23;;;;;;;7.55;4.18;;;15.40;99.90;;;;;;5155877;27;20050;-78
2022/10/23 11:22:19;;;;;;;6.03;3.95;;;15.40;99.90;;;;;;5155847;27;20058;-78
2022/10/23 11:25:15;;;;;;;7.07;3.55;;;15.40;99.90;;;;;;5155550;27;20061;-78
2022/10/23 11:27:52;;;;;;;7.82;4.20;;;15.40;99.90;;;;;;5155639;27;20122;-78
2022/10/23 11:30:56;;;;;;;7.70;3.90;;;15.40;99.90;;;;;;5156184;27;20042;-74
2022/10/23 11:33:43;;;;;;;10.63;4.25;;;15.30;99.90;;;;;;5130369;27;20050;-77
2022/10/23 11:36:19;;;;;;;15.20;4.40;;;15.30;99.90;;;;;;5155531;27;20042;-76
2022/10/23 11:38:48;;;;;;;15.03;4.50;;;15.30;99.90;;;;;;5155697;27;20372;-77
2022/10/23 11:41:23;;;;;;;8.50;3.80;;;15.40;99.90;;;;;;5155588;27;20038;-78
2022/10/23 11:43:56;;;;;;;6.18;3.53;;;15.40;99.90;;;;;;5155357;27;20151;-76
2022/10/23 11:46:21;;;;;;;10.73;3.95;;;15.40;99.90;;;;;;5155003;27;20470;-76
2022/10/23 11:48:48;;;;;;;8.77;4.00;;;15.50;99.90;;;;;;5155128;27;20057;-76
2022/10/23 11:51:27;;;;;;;8.60;4.30;;;15.50;99.90;;;;;;5155854;27;20125;-76
2022/10/23 11:54:15;;;;;;;10.98;4.82;;;15.60;99.90;;;;;;5155454;27;20034;-76
2022/10/23 11:57:10;;;;;;;6.40;3.90;;;15.60;99.90;;;;;;5155405;27;20043;-77
2022/10/23 11:59:54;;;;;;;8.15;3.97;;;15.60;99.90;;;;;;5155385;27;20039;-76
2022/10/23 12:02:37;;;;;;;12.40;3.78;;;15.70;99.90;;;;;;5155377;27;20041;-75
2022/10/23 12:05:23;;;;;;;6.15;3.83;;;15.70;99.90;;;;;;5155398;27;20080;-76
2022/10/23 12:07:54;;;;;;;8.88;4.45;;;15.80;99.90;;;;;;5155315;27;20057;-76
2022/10/23 12:10:28;;;;;;;6.70;3.40;;;15.80;99.90;;;;;;5155683;27;20116;-76
2022/10/23 12:13:05;;;;;;;11.50;3.95;;;15.80;99.90;;;;;;5155304;27;20042;-75
2022/10/23 12:15:33;;;;;;;6.15;3.80;;;15.90;99.90;;;;;;5155200;27;20094;-77
2022/10/23 12:18:28;;;;;;;9.35;3.88;;;15.90;99.90;;;;;;5155106;27;20050;-76
2022/10/23 12:20:57;;;;;;;6.85;3.75;;;16.00;99.90;;;;;;5137382;27;20100;-77
2022/10/23 12:23:35;;;;;;;8.63;3.85;;;16.00;99.90;;;;;;5154746;27;20478;-75
2022/10/23 12:26:03;;;;;;;8.57;3.50;;;16.00;99.90;;;;;;5154768;27;20047;-76
2022/10/23 12:28:42;;;;;;;6.47;3.30;;;16.10;99.90;;;;;;5155003;27;20082;-75
2022/10/23 12:31:27;;;;;;;5.78;3.17;;;16.00;99.90;;;;;;5155512;27;20042;-76
2022/10/23 12:34:30;;;;;;;5.80;3.35;;;16.00;99.90;;;;;;5155254;27;20051;-78
2022/10/23 12:37:10;;;;;;;8.73;3.63;;;16.10;99.90;;;;;;5154999;27;20046;-75
2022/10/23 12:39:37;;;;;;;9.80;3.42;;;16.20;99.90;;;;;;5155422;27;20125;-76
2022/10/23 12:42:05;;;;;;;12.43;3.83;;;16.20;99.90;;;;;;5154978;27;20047;-76
2022/10/23 12:44:30;;;;;;;8.05;3.45;;;16.20;99.90;;;;;;5154833;27;20046;-77
2022/10/23 12:47:01;;;;;;;8.53;3.73;;;16.30;99.90;;;;;;5154703;27;20470;-78
2022/10/23 12:49:34;;;;;;;5.85;3.28;;;16.30;99.90;;;;;;5153797;27;20167;-80
2022/10/23 12:52:04;;;;;;;9.80;3.25;;;16.30;99.90;;;;;;5154430;27;20134;-79
2022/10/23 12:54:32;;;;;;;7.03;3.38;;;16.30;99.90;;;;;;5154270;27;20046;-77
2022/10/23 12:56:58;;;;;;;6.30;3.10;;;16.30;99.90;;;;;;5156882;27;20142;-77
2022/10/23 12:59:35;;;;;;;11.10;3.20;;;16.30;99.90;;;;;;5157674;27;20472;-78
2022/10/23 13:02:01;;;;;;;10.00;3.30;;;16.20;99.90;;;;;;5156194;27;20039;-79